Time;durP1;ratioP1;P1;durP2;ratioP2;P2;SDS_P1;SDS_P2;PMS_P1;PMS_P2;Temp;Humidity;BMP_temperature;BMP_pressure;BME280_temperature;BME280_humidity;BME280_pressure;Samples;Min_cycle;Max_cycle;Signal;HPM_P1;HPM_P2
2021/08/05 00:00:51;;;;;;;1.65;0.90;;;;;;;;;;5031298;28;20552;-74
2021/08/05 00:03:17;;;;;;;2.53;1.02;;;;;;;;;;5031262;28;20033;-73
2021/08/05 00:05:43;;;;;;;3.08;1.25;;;;;;;;;;5031458;28;20029;-74
2021/08/05 00:08:09;;;;;;;1.70;1.02;;;;;;;;;;5031190;28;20040;-73
2021/08/05 00:10:35;;;;;;;1.17;0.93;;;;;;;;;;5031554;28;20025;-74
2021/08/05 00:13:01;;;;;;;2.13;1.02;;;;;;;;;;5030100;28;20028;-74
2021/08/05 00:15:27;;;;;;;2.22;0.90;;;;;;;;;;5031827;28;20032;-74
2021/08/05 00:17:53;;;;;;;1.80;0.90;;;;;;;;;;5031342;28;20022;-74
2021/08/05 00:20:20;;;;;;;1.98;1.00;;;;;;;;;;5031111;28;20109;-74
2021/08/05 00:22:46;;;;;;;2.80;1.00;;;;;;;;;;5031176;28;20029;-74
2021/08/05 00:25:12;;;;;;;1.60;0.90;;;;;;;;;;5031440;28;20049;-74
2021/08/05 00:27:38;;;;;;;1.10;0.90;;;;;;;;;;5033930;28;20026;-73
2021/08/05 00:30:05;;;;;;;1.38;0.90;;;;;;;;;;5034677;28;20088;-74
2021/08/05 00:32:31;;;;;;;2.97;0.75;;;;;;;;;;5035167;28;20052;-74
2021/08/05 00:34:57;;;;;;;3.70;1.00;;;;;;;;;;5034704;28;20032;-74
2021/08/05 00:37:23;;;;;;;1.95;1.17;;;;;;;;;;5034884;28;20025;-74
2021/08/05 00:39:49;;;;;;;3.22;0.90;;;;;;;;;;5034564;28;20029;-74
2021/08/05 00:42:15;;;;;;;2.88;0.85;;;;;;;;;;5034116;28;20034;-74
2021/08/05 00:44:41;;;;;;;1.20;0.75;;;;;;;;;;5035415;28;20029;-74
2021/08/05 00:47:07;;;;;;;1.00;0.70;;;;;;;;;;5034619;28;20051;-73
2021/08/05 00:49:33;;;;;;;1.13;0.70;;;;;;;;;;5034296;28;20041;-73
2021/08/05 00:52:00;;;;;;;2.08;0.80;;;;;;;;;;5033962;28;20456;-73
2021/08/05 00:54:26;;;;;;;2.42;0.98;;;;;;;;;;5034455;28;20034;-73
2021/08/05 00:56:52;;;;;;;1.90;0.82;;;;;;;;;;5034997;28;20026;-74
2021/08/05 00:59:18;;;;;;;2.70;0.75;;;;;;;;;;5034317;28;20032;-74
2021/08/05 01:01:47;;;;;;;2.10;0.75;;;;;;;;;;5033177;28;20026;-75
2021/08/05 01:04:14;;;;;;;1.38;0.60;;;;;;;;;;5029770;28;20506;-76
2021/08/05 01:06:41;;;;;;;1.60;0.70;;;;;;;;;;5034172;28;20022;-75
2021/08/05 01:09:07;;;;;;;1.95;0.73;;;;;;;;;;5032589;28;20044;-75
2021/08/05 01:11:42;;;;;;;1.15;0.55;;;;;;;;;;5033811;28;20021;-75
2021/08/05 01:14:08;;;;;;;2.50;0.70;;;;;;;;;;5032648;28;20140;-76
2021/08/05 01:16:36;;;;;;;1.92;0.70;;;;;;;;;;5034091;28;20049;-75
2021/08/05 01:19:09;;;;;;;2.35;0.82;;;;;;;;;;5034063;28;20544;-75
2021/08/05 01:21:53;;;;;;;1.30;0.57;;;;;;;;;;5032233;28;20021;-75
2021/08/05 01:24:21;;;;;;;1.20;0.60;;;;;;;;;;5033513;28;20520;-75
2021/08/05 01:26:47;;;;;;;1.40;0.70;;;;;;;;;;5032647;28;20532;-75
2021/08/05 01:29:14;;;;;;;2.08;0.80;;;;;;;;;;5033461;28;20120;-76
2021/08/05 01:31:42;;;;;;;1.63;0.85;;;;;;;;;;5033319;28;20071;-75
2021/08/05 01:34:11;;;;;;;1.15;0.60;;;;;;;;;;5033779;28;20035;-76
2021/08/05 01:36:37;;;;;;;1.48;0.85;;;;;;;;;;5032257;28;20013;-75
2021/08/05 01:39:03;;;;;;;1.25;0.60;;;;;;;;;;5032628;28;20055;-75
2021/08/05 01:41:30;;;;;;;1.70;0.75;;;;;;;;;;5032903;28;20116;-76
2021/08/05 01:43:56;;;;;;;3.50;0.85;;;;;;;;;;5033352;28;20036;-76
2021/08/05 01:46:23;;;;;;;1.67;0.60;;;;;;;;;;5033508;28;20060;-76
2021/08/05 01:48:50;;;;;;;0.93;0.63;;;;;;;;;;5038351;28;20020;-75
2021/08/05 01:51:20;;;;;;;1.42;0.70;;;;;;;;;;5052613;28;20029;-76
2021/08/05 01:53:46;;;;;;;1.13;0.60;;;;;;;;;;5053161;28;20488;-75
2021/08/05 01:56:12;;;;;;;2.10;0.77;;;;;;;;;;5053341;28;20027;-75
2021/08/05 01:58:38;;;;;;;2.20;0.70;;;;;;;;;;5053479;28;20061;-75
2021/08/05 02:01:04;;;;;;;3.85;0.98;;;;;;;;;;5043087;28;20029;-75
2021/08/05 02:03:31;;;;;;;1.15;0.57;;;;;;;;;;5033048;28;20029;-76
2021/08/05 02:06:07;;;;;;;1.23;0.50;;;;;;;;;;5033496;28;20060;-75
2021/08/05 02:08:54;;;;;;;1.27;0.60;;;;;;;;;;5033179;28;20095;-75
2021/08/05 02:11:24;;;;;;;1.63;0.52;;;;;;;;;;5032228;28;20041;-75
2021/08/05 02:13:50;;;;;;;2.60;0.73;;;;;;;;;;5031462;28;20069;-75
2021/08/05 02:16:18;;;;;;;1.42;0.82;;;;;;;;;;5033060;28;20026;-75
2021/08/05 02:18:45;;;;;;;1.17;0.73;;;;;;;;;;5032902;28;20033;-75
2021/08/05 02:21:13;;;;;;;3.33;0.77;;;;;;;;;;5038207;28;20037;-75
2021/08/05 02:23:40;;;;;;;1.52;0.50;;;;;;;;;;5051262;28;20075;-76
2021/08/05 02:26:07;;;;;;;1.38;0.63;;;;;;;;;;5053037;28;20522;-75
2021/08/05 02:28:33;;;;;;;1.00;0.60;;;;;;;;;;5035263;28;20512;-76
2021/08/05 02:31:00;;;;;;;1.52;0.70;;;;;;;;;;5032850;28;20443;-76
2021/08/05 02:33:27;;;;;;;0.98;0.60;;;;;;;;;;5032633;28;20032;-75
2021/08/05 02:35:54;;;;;;;0.90;0.43;;;;;;;;;;5032882;28;20026;-75
2021/08/05 02:38:20;;;;;;;2.05;0.77;;;;;;;;;;5032995;28;20029;-75
2021/08/05 02:40:47;;;;;;;1.63;0.50;;;;;;;;;;5032397;28;20057;-75
2021/08/05 02:43:14;;;;;;;1.00;0.60;;;;;;;;;;5032835;28;20388;-75
2021/08/05 02:45:40;;;;;;;1.17;0.50;;;;;;;;;;5032266;28;20404;-76
2021/08/05 02:48:07;;;;;;;2.75;0.85;;;;;;;;;;5032243;28;20030;-76
2021/08/05 02:50:33;;;;;;;1.48;0.63;;;;;;;;;;5031732;28;20105;-75
2021/08/05 02:53:01;;;;;;;1.05;0.50;;;;;;;;;;5032787;28;20029;-75
2021/08/05 02:55:27;;;;;;;1.55;0.70;;;;;;;;;;5030854;28;20037;-76
2021/08/05 02:57:53;;;;;;;1.65;0.70;;;;;;;;;;5032317;28;20025;-75
2021/08/05 03:00:19;;;;;;;0.80;0.60;;;;;;;;;;5032267;28;20029;-75
2021/08/05 03:02:46;;;;;;;1.35;0.60;;;;;;;;;;5031629;28;20037;-75
2021/08/05 03:05:12;;;;;;;1.35;0.50;;;;;;;;;;5032167;28;20444;-75
2021/08/05 03:07:39;;;;;;;0.80;0.47;;;;;;;;;;5030614;28;20033;-75
2021/08/05 03:10:05;;;;;;;0.77;0.47;;;;;;;;;;5030716;28;20029;-76
2021/08/05 03:12:31;;;;;;;1.08;0.50;;;;;;;;;;5031478;28;20424;-76
2021/08/05 03:14:57;;;;;;;1.15;0.55;;;;;;;;;;5031811;28;20025;-76
2021/08/05 03:17:23;;;;;;;2.28;0.80;;;;;;;;;;5031957;28;20469;-75
2021/08/05 03:19:50;;;;;;;0.40;0.30;;;;;;;;;;5030283;28;20508;-76
2021/08/05 03:22:19;;;;;;;1.00;0.52;;;;;;;;;;5030916;28;20161;-76
2021/08/05 03:24:45;;;;;;;0.88;0.57;;;;;;;;;;5031229;28;20053;-76
2021/08/05 03:27:12;;;;;;;2.30;0.68;;;;;;;;;;5044409;28;20024;-75
2021/08/05 03:29:38;;;;;;;1.33;0.50;;;;;;;;;;5030349;28;20547;-76
2021/08/05 03:32:04;;;;;;;0.65;0.43;;;;;;;;;;5031028;28;20056;-76
2021/08/05 03:34:31;;;;;;;1.20;0.63;;;;;;;;;;5032075;28;20439;-76
2021/08/05 03:36:57;;;;;;;1.17;0.40;;;;;;;;;;5031637;28;20029;-75
2021/08/05 03:39:24;;;;;;;0.65;0.38;;;;;;;;;;5030639;28;20032;-75
2021/08/05 03:41:50;;;;;;;0.90;0.32;;;;;;;;;;5030979;28;20424;-76
2021/08/05 03:44:16;;;;;;;1.30;0.40;;;;;;;;;;5031797;28;20029;-75
2021/08/05 03:46:42;;;;;;;2.85;0.60;;;;;;;;;;5032123;28;20029;-76
2021/08/05 03:49:08;;;;;;;0.85;0.50;;;;;;;;;;5031747;28;20461;-76
2021/08/05 03:51:35;;;;;;;0.50;0.30;;;;;;;;;;5031264;28;20021;-76
2021/08/05 03:54:01;;;;;;;1.30;0.50;;;;;;;;;;5031420;28;20100;-75
2021/08/05 03:56:27;;;;;;;2.67;0.60;;;;;;;;;;5031526;28;20028;-75
2021/08/05 03:58:53;;;;;;;2.88;0.60;;;;;;;;;;5046241;28;20082;-75
2021/08/05 04:01:19;;;;;;;1.70;0.63;;;;;;;;;;5051299;28;20029;-75
2021/08/05 04:03:48;;;;;;;0.82;0.40;;;;;;;;;;5054645;28;20078;-75
2021/08/05 04:06:15;;;;;;;1.40;0.50;;;;;;;;;;5055089;28;20527;-75
2021/08/05 04:08:41;;;;;;;1.20;0.50;;;;;;;;;;5054983;28;20122;-75
2021/08/05 04:11:07;;;;;;;0.60;0.45;;;;;;;;;;5054518;28;20032;-75
2021/08/05 04:13:33;;;;;;;1.10;0.50;;;;;;;;;;5042039;28;20021;-76
2021/08/05 04:15:59;;;;;;;1.33;0.60;;;;;;;;;;5035492;28;20427;-76
2021/08/05 04:18:25;;;;;;;1.83;0.43;;;;;;;;;;5035339;28;20029;-75
2021/08/05 04:20:51;;;;;;;1.17;0.40;;;;;;;;;;5034616;28;20057;-75
2021/08/05 04:23:17;;;;;;;0.47;0.40;;;;;;;;;;5033370;28;20037;-76
2021/08/05 04:25:44;;;;;;;0.63;0.38;;;;;;;;;;5033515;28;20142;-75
2021/08/05 04:28:10;;;;;;;1.10;0.60;;;;;;;;;;5034965;28;20030;-76
2021/08/05 04:30:36;;;;;;;1.65;0.57;;;;;;;;;;5045816;28;20021;-75
2021/08/05 04:33:03;;;;;;;2.78;0.65;;;;;;;;;;5054485;28;20141;-75
2021/08/05 04:35:29;;;;;;;1.45;0.30;;;;;;;;;;5054899;28;20615;-75
2021/08/05 04:37:56;;;;;;;2.45;0.50;;;;;;;;;;5054919;28;20587;-75
2021/08/05 04:40:22;;;;;;;2.15;0.60;;;;;;;;;;5055001;28;20496;-75
2021/08/05 04:42:49;;;;;;;0.90;0.30;;;;;;;;;;5054500;28;20033;-76
2021/08/05 04:45:15;;;;;;;1.67;0.43;;;;;;;;;;5039976;28;20026;-77
2021/08/05 04:47:52;;;;;;;0.80;0.25;;;;;;;;;;5035132;28;20471;-77
2021/08/05 04:50:19;;;;;;;1.15;0.40;;;;;;;;;;5034798;28;20081;-77
2021/08/05 04:52:45;;;;;;;1.30;0.55;;;;;;;;;;5033270;28;20026;-77
2021/08/05 04:55:11;;;;;;;2.13;0.40;;;;;;;;;;5033266;28;20451;-77
2021/08/05 04:57:50;;;;;;;1.33;0.50;;;;;;;;;;5034643;28;20071;-77
2021/08/05 05:00:20;;;;;;;2.03;0.60;;;;;;;;;;5034541;28;20026;-77
2021/08/05 05:02:46;;;;;;;0.80;0.47;;;;;;;;;;5034739;28;20034;-77
2021/08/05 05:05:12;;;;;;;1.73;0.68;;;;;;;;;;5033291;28;20021;-77
2021/08/05 05:07:38;;;;;;;3.00;0.40;;;;;;;;;;5034636;28;20119;-77
2021/08/05 05:10:05;;;;;;;1.42;0.50;;;;;;;;;;5034279;28;20033;-77
2021/08/05 05:12:31;;;;;;;2.45;0.55;;;;;;;;;;5033811;28;20544;-77
2021/08/05 05:14:57;;;;;;;2.55;0.35;;;;;;;;;;5034315;28;20049;-77
2021/08/05 05:17:23;;;;;;;0.60;0.38;;;;;;;;;;5034034;28;20025;-77
2021/08/05 05:19:49;;;;;;;2.80;0.40;;;;;;;;;;5034335;28;20033;-77
2021/08/05 05:22:15;;;;;;;1.02;0.50;;;;;;;;;;5033593;28;20029;-77
2021/08/05 05:24:41;;;;;;;1.52;0.52;;;;;;;;;;5033773;28;20045;-77
2021/08/05 05:27:07;;;;;;;1.05;0.30;;;;;;;;;;5034190;28;20439;-77
2021/08/05 05:29:34;;;;;;;0.63;0.30;;;;;;;;;;5034132;28;20396;-77
2021/08/05 05:32:00;;;;;;;1.15;0.52;;;;;;;;;;5033155;28;20378;-77
2021/08/05 05:34:26;;;;;;;1.60;0.40;;;;;;;;;;5039215;28;20025;-77
2021/08/05 05:36:52;;;;;;;0.82;0.38;;;;;;;;;;5053801;28;20048;-77
2021/08/05 05:39:18;;;;;;;0.57;0.35;;;;;;;;;;5052393;28;20028;-77
2021/08/05 05:41:44;;;;;;;1.58;0.50;;;;;;;;;;5053341;28;20061;-77
2021/08/05 05:44:10;;;;;;;1.75;0.30;;;;;;;;;;5046789;28;20186;-77
2021/08/05 05:46:36;;;;;;;0.30;0.30;;;;;;;;;;5033980;28;20037;-77
2021/08/05 05:49:02;;;;;;;2.35;0.55;;;;;;;;;;5033824;28;20029;-77
2021/08/05 05:51:28;;;;;;;3.22;0.50;;;;;;;;;;5033341;28;20045;-77
2021/08/05 05:53:55;;;;;;;1.05;0.40;;;;;;;;;;5033160;28;20028;-77
2021/08/05 05:56:21;;;;;;;1.45;0.60;;;;;;;;;;5033710;28;20024;-77
2021/08/05 05:58:47;;;;;;;1.05;0.40;;;;;;;;;;5033434;28;20528;-77
2021/08/05 06:01:13;;;;;;;1.08;0.20;;;;;;;;;;5032849;28;20040;-77
2021/08/05 06:03:39;;;;;;;1.65;0.45;;;;;;;;;;5032852;28;20025;-77
2021/08/05 06:06:05;;;;;;;1.48;0.30;;;;;;;;;;5032856;28;20032;-77
2021/08/05 06:08:31;;;;;;;1.33;0.57;;;;;;;;;;5053057;28;20029;-77
2021/08/05 06:10:57;;;;;;;2.38;0.57;;;;;;;;;;5052688;28;20056;-77
2021/08/05 06:13:23;;;;;;;1.77;0.50;;;;;;;;;;5042772;28;20032;-77
2021/08/05 06:15:49;;;;;;;1.45;0.30;;;;;;;;;;5032988;28;20026;-77
2021/08/05 06:18:17;;;;;;;0.82;0.30;;;;;;;;;;5033300;28;20025;-77
2021/08/05 06:20:43;;;;;;;1.55;0.50;;;;;;;;;;5033537;28;20033;-77
2021/08/05 06:23:09;;;;;;;0.88;0.50;;;;;;;;;;5032759;28;20033;-77
2021/08/05 06:25:39;;;;;;;2.10;0.52;;;;;;;;;;5032201;28;20077;-77
2021/08/05 06:28:05;;;;;;;2.03;0.40;;;;;;;;;;5033228;28;20105;-77
2021/08/05 06:30:32;;;;;;;1.52;0.40;;;;;;;;;;5032863;28;20029;-77
2021/08/05 06:32:58;;;;;;;1.10;0.38;;;;;;;;;;5032663;28;20025;-77
2021/08/05 06:35:24;;;;;;;1.63;0.50;;;;;;;;;;5032780;28;20017;-77
2021/08/05 06:37:50;;;;;;;1.52;0.45;;;;;;;;;;5031465;28;20022;-77
2021/08/05 06:40:17;;;;;;;1.42;0.50;;;;;;;;;;5049417;28;20570;-77
2021/08/05 06:42:44;;;;;;;1.77;0.70;;;;;;;;;;5052526;28;20112;-77
2021/08/05 06:45:11;;;;;;;1.45;0.50;;;;;;;;;;5037550;28;20026;-77
2021/08/05 06:47:41;;;;;;;0.95;0.40;;;;;;;;;;5032863;28;20493;-76
2021/08/05 06:50:08;;;;;;;1.15;0.43;;;;;;;;;;5032353;28;20204;-77
2021/08/05 06:52:34;;;;;;;0.43;0.30;;;;;;;;;;5032465;28;20401;-77
2021/08/05 06:55:00;;;;;;;1.73;0.47;;;;;;;;;;5032026;28;20532;-77
2021/08/05 06:57:26;;;;;;;1.05;0.40;;;;;;;;;;5031165;28;20063;-77
2021/08/05 06:59:53;;;;;;;1.67;0.50;;;;;;;;;;5030985;28;20495;-77
2021/08/05 07:02:19;;;;;;;1.58;0.40;;;;;;;;;;5030421;28;20508;-77
2021/08/05 07:04:45;;;;;;;1.05;0.40;;;;;;;;;;5031970;28;20409;-77
2021/08/05 07:07:11;;;;;;;1.90;0.77;;;;;;;;;;5029413;28;20563;-77
2021/08/05 07:09:37;;;;;;;2.33;0.70;;;;;;;;;;5015419;28;20055;-76
2021/08/05 07:12:03;;;;;;;2.67;0.50;;;;;;;;;;5028159;28;20029;-76
2021/08/05 07:14:29;;;;;;;4.00;0.60;;;;;;;;;;5026525;28;20036;-77
2021/08/05 07:16:55;;;;;;;1.75;0.68;;;;;;;;;;5030902;28;20032;-76
2021/08/05 07:19:22;;;;;;;2.83;0.70;;;;;;;;;;5031174;28;20065;-76
2021/08/05 07:21:48;;;;;;;2.85;0.55;;;;;;;;;;5027744;28;20033;-76
2021/08/05 07:24:14;;;;;;;3.90;0.90;;;;;;;;;;5030674;28;20033;-76
2021/08/05 07:26:40;;;;;;;3.83;0.90;;;;;;;;;;5023657;28;20038;-76
2021/08/05 07:29:07;;;;;;;1.25;0.55;;;;;;;;;;5030139;28;20105;-76
2021/08/05 07:31:33;;;;;;;4.30;0.80;;;;;;;;;;5015730;28;20041;-76
2021/08/05 07:33:59;;;;;;;3.40;0.68;;;;;;;;;;5029346;28;20035;-76
2021/08/05 07:36:26;;;;;;;4.35;0.60;;;;;;;;;;5027400;28;20804;-76
2021/08/05 07:38:52;;;;;;;3.90;1.00;;;;;;;;;;5031570;28;20032;-76
2021/08/05 07:41:18;;;;;;;1.77;0.60;;;;;;;;;;5029051;28;20071;-76
2021/08/05 07:43:45;;;;;;;4.25;0.75;;;;;;;;;;5025697;28;20152;-76
2021/08/05 07:46:11;;;;;;;1.42;0.60;;;;;;;;;;5031824;28;20029;-76
2021/08/05 07:48:37;;;;;;;4.97;0.43;;;;;;;;;;5033757;28;20029;-76
2021/08/05 07:51:03;;;;;;;2.17;0.55;;;;;;;;;;5020383;28;20113;-76
2021/08/05 07:53:29;;;;;;;1.52;0.60;;;;;;;;;;5031945;28;20112;-76
2021/08/05 07:55:55;;;;;;;3.95;0.95;;;;;;;;;;5023905;28;20040;-76
2021/08/05 07:58:21;;;;;;;1.58;0.60;;;;;;;;;;5034334;28;20124;-77
2021/08/05 08:00:48;;;;;;;3.05;0.65;;;;;;;;;;5024199;28;20025;-76
2021/08/05 08:03:15;;;;;;;2.90;0.60;;;;;;;;;;5016189;28;20026;-76
2021/08/05 08:05:41;;;;;;;4.53;0.85;;;;;;;;;;5035329;28;20105;-76
2021/08/05 08:08:08;;;;;;;3.15;0.70;;;;;;;;;;5033638;28;20057;-76
2021/08/05 08:10:35;;;;;;;5.40;0.77;;;;;;;;;;5035723;28;20029;-76
2021/08/05 08:13:01;;;;;;;3.95;0.75;;;;;;;;;;5035322;28;20071;-76
2021/08/05 08:15:27;;;;;;;1.33;0.60;;;;;;;;;;5035475;28;20067;-76
2021/08/05 08:17:53;;;;;;;1.80;0.70;;;;;;;;;;5033893;28;20032;-76
2021/08/05 08:20:20;;;;;;;3.58;0.80;;;;;;;;;;5033229;28;20488;-76
2021/08/05 08:22:46;;;;;;;4.93;0.70;;;;;;;;;;5034861;28;20037;-76
2021/08/05 08:25:12;;;;;;;2.38;0.93;;;;;;;;;;5033208;28;20068;-76
2021/08/05 08:27:40;;;;;;;1.50;0.63;;;;;;;;;;5034810;28;20038;-76
2021/08/05 08:30:06;;;;;;;5.32;0.73;;;;;;;;;;5034944;28;20033;-76
2021/08/05 08:32:32;;;;;;;2.97;0.80;;;;;;;;;;5035556;28;20022;-76
2021/08/05 08:34:59;;;;;;;2.67;0.68;;;;;;;;;;5035659;28;20031;-76
2021/08/05 08:37:25;;;;;;;4.38;0.70;;;;;;;;;;5040329;28;20080;-76
2021/08/05 08:39:52;;;;;;;2.13;0.60;;;;;;;;;;5017896;28;20034;-76
2021/08/05 08:42:18;;;;;;;6.40;1.08;;;;;;;;;;5031277;28;20076;-76
2021/08/05 08:44:45;;;;;;;1.60;0.50;;;;;;;;;;5032742;28;20416;-76
2021/08/05 08:47:12;;;;;;;5.88;0.80;;;;;;;;;;5035722;28;20445;-76
2021/08/05 08:49:39;;;;;;;4.18;0.80;;;;;;;;;;5035400;28;20132;-76
2021/08/05 08:52:05;;;;;;;7.78;1.02;;;;;;;;;;5029104;28;20523;-76
2021/08/05 08:54:33;;;;;;;5.70;0.80;;;;;;;;;;5034696;28;20056;-76
2021/08/05 08:56:59;;;;;;;5.03;1.00;;;;;;;;;;5033843;28;20531;-76
2021/08/05 08:59:25;;;;;;;5.90;0.90;;;;;;;;;;5019362;28;20057;-76
2021/08/05 09:01:51;;;;;;;4.35;1.00;;;;;;;;;;5026754;28;20026;-76
2021/08/05 09:04:18;;;;;;;6.65;1.27;;;;;;;;;;5021205;28;20096;-76
2021/08/05 09:06:48;;;;;;;7.55;1.10;;;;;;;;;;5024640;28;20026;-76
2021/08/05 09:09:15;;;;;;;4.40;1.20;;;;;;;;;;5033552;28;20045;-76
2021/08/05 09:11:41;;;;;;;8.50;1.00;;;;;;;;;;5033286;28;20033;-76
2021/08/05 09:14:07;;;;;;;4.53;0.90;;;;;;;;;;5032238;28;20029;-76
2021/08/05 09:16:33;;;;;;;8.98;1.10;;;;;;;;;;5031370;28;20479;-75
2021/08/05 09:19:09;;;;;;;3.63;0.95;;;;;;;;;;5033885;28;20155;-76
2021/08/05 09:21:35;;;;;;;7.68;1.50;;;;;;;;;;5036681;28;20022;-76
2021/08/05 09:24:07;;;;;;;4.45;0.90;;;;;;;;;;5029635;28;20096;-76
2021/08/05 09:26:42;;;;;;;6.78;1.30;;;;;;;;;;5033309;28;20022;-75
2021/08/05 09:29:14;;;;;;;3.03;1.00;;;;;;;;;;5028668;28;20480;-76
2021/08/05 09:32:01;;;;;;;4.85;1.13;;;;;;;;;;5021431;28;20108;-76
2021/08/05 09:34:42;;;;;;;9.45;1.10;;;;;;;;;;5028191;28;20036;-75
2021/08/05 09:37:14;;;;;;;7.43;1.00;;;;;;;;;;5030079;28;20517;-76
2021/08/05 09:39:41;;;;;;;6.00;1.45;;;;;;;;;;5015202;28;20030;-75
2021/08/05 09:42:07;;;;;;;4.85;1.08;;;;;;;;;;5032672;28;20037;-76
2021/08/05 09:44:39;;;;;;;3.92;0.70;;;;;;;;;;5032500;28;20017;-76
2021/08/05 09:47:06;;;;;;;6.35;1.23;;;;;;;;;;5023958;28;20021;-76
2021/08/05 09:49:34;;;;;;;7.13;1.10;;;;;;;;;;5025769;28;20100;-76
2021/08/05 09:52:00;;;;;;;3.42;1.10;;;;;;;;;;5032550;28;20033;-76
2021/08/05 09:54:48;;;;;;;3.10;1.00;;;;;;;;;;5032423;28;20030;-77
2021/08/05 09:57:21;;;;;;;5.63;1.30;;;;;;;;;;5025836;28;20017;-77
2021/08/05 10:00:06;;;;;;;3.20;1.63;;;;;;;;;;5030271;28;20087;-76
2021/08/05 10:02:42;;;;;;;6.30;2.25;;;;;;;;;;5033005;28;20084;-77
2021/08/05 10:05:12;;;;;;;3.72;1.17;;;;;;;;;;5033819;28;20041;-77
2021/08/05 10:07:42;;;;;;;6.70;0.90;;;;;;;;;;5030983;28;20073;-76
2021/08/05 10:10:08;;;;;;;19.77;5.90;;;;;;;;;;5029000;28;20033;-76
2021/08/05 10:12:38;;;;;;;4.07;0.95;;;;;;;;;;5032237;28;20040;-77
2021/08/05 10:15:14;;;;;;;13.18;6.20;;;;;;;;;;5022768;28;20025;-77
2021/08/05 10:17:41;;;;;;;4.50;0.80;;;;;;;;;;5027260;28;20100;-76
2021/08/05 10:20:11;;;;;;;8.88;1.38;;;;;;;;;;5030435;28;20037;-77
2021/08/05 10:22:38;;;;;;;4.20;1.25;;;;;;;;;;5017414;28;20057;-77
2021/08/05 10:25:05;;;;;;;4.03;1.05;;;;;;;;;;5034371;28;20128;-77
2021/08/05 10:27:31;;;;;;;9.02;1.75;;;;;;;;;;5031965;28;20030;-77
2021/08/05 10:29:58;;;;;;;3.97;1.02;;;;;;;;;;5032906;28;20064;-77
2021/08/05 10:32:24;;;;;;;8.60;1.88;;;;;;;;;;5027764;28;20526;-77
2021/08/05 10:34:51;;;;;;;9.98;1.55;;;;;;;;;;5015693;28;20385;-77
2021/08/05 10:37:17;;;;;;;5.28;1.73;;;;;;;;;;5032774;28;20034;-77
2021/08/05 10:39:45;;;;;;;6.95;1.67;;;;;;;;;;5034875;28;20028;-77
2021/08/05 10:42:13;;;;;;;9.45;3.05;;;;;;;;;;5031872;28;20079;-78
2021/08/05 10:44:40;;;;;;;6.80;1.33;;;;;;;;;;5036412;28;20060;-77
2021/08/05 10:47:07;;;;;;;12.10;2.00;;;;;;;;;;5029097;28;20037;-77
2021/08/05 10:49:34;;;;;;;11.02;1.63;;;;;;;;;;5016965;28;20056;-77
2021/08/05 10:52:00;;;;;;;5.47;1.50;;;;;;;;;;5021554;28;20025;-76
2021/08/05 10:54:45;;;;;;;6.75;1.50;;;;;;;;;;5030453;28;20030;-77
2021/08/05 10:57:19;;;;;;;4.03;1.27;;;;;;;;;;5026840;28;20136;-77
2021/08/05 10:59:57;;;;;;;4.22;1.00;;;;;;;;;;5027159;28;20124;-77
2021/08/05 11:02:41;;;;;;;6.55;1.50;;;;;;;;;;5023998;28;20112;-77
2021/08/05 11:05:08;;;;;;;7.60;1.35;;;;;;;;;;5026158;28;20032;-77
2021/08/05 11:07:34;;;;;;;3.38;1.00;;;;;;;;;;5028987;28;20377;-77
2021/08/05 11:10:24;;;;;;;2.85;1.27;;;;;;;;;;5031510;28;20043;-77
2021/08/05 11:12:50;;;;;;;2.80;1.25;;;;;;;;;;5034132;28;20044;-77
2021/08/05 11:15:22;;;;;;;2.97;0.95;;;;;;;;;;5033584;28;20042;-77
2021/08/05 11:18:19;;;;;;;4.10;1.17;;;;;;;;;;5029459;28;20042;-77
2021/08/05 11:21:05;;;;;;;1.67;0.98;;;;;;;;;;5033248;28;20037;-77
2021/08/05 11:25:57;;;;;;;2.83;1.10;;;;;;;;;;5033141;28;20084;-77
2021/08/05 11:28:23;;;;;;;2.85;1.00;;;;;;;;;;5033035;28;20029;-77
2021/08/05 11:30:51;;;;;;;4.07;0.70;;;;;;;;;;5039095;28;20357;-77
2021/08/05 11:33:35;;;;;;;3.67;1.33;;;;;;;;;;5036763;28;20064;-77
2021/08/05 11:36:21;;;;;;;3.58;1.25;;;;;;;;;;5032713;28;20083;-77
2021/08/05 11:39:07;;;;;;;3.58;1.48;;;;;;;;;;5024222;28;20173;-77
2021/08/05 11:41:40;;;;;;;2.00;1.10;;;;;;;;;;5026796;28;20037;-77
2021/08/05 11:44:25;;;;;;;3.42;1.00;;;;;;;;;;5030431;28;20022;-77
2021/08/05 11:47:10;;;;;;;2.53;0.88;;;;;;;;;;5029149;28;20025;-78
2021/08/05 11:49:47;;;;;;;4.93;1.90;;;;;;;;;;5022010;28;20037;-79
2021/08/05 11:52:19;;;;;;;5.70;0.88;;;;;;;;;;5029091;28;20034;-78
2021/08/05 11:54:47;;;;;;;1.90;1.05;;;;;;;;;;5031461;28;20049;-78
2021/08/05 11:57:14;;;;;;;4.63;1.15;;;;;;;;;;5037019;28;20480;-78
2021/08/05 11:59:46;;;;;;;12.45;1.40;;;;;;;;;;5031354;28;20041;-78
2021/08/05 12:02:13;;;;;;;8.32;1.38;;;;;;;;;;5030054;28;20033;-78
2021/08/05 12:04:39;;;;;;;8.23;1.35;;;;;;;;;;5029269;28;20120;-78
2021/08/05 12:07:24;;;;;;;4.82;1.17;;;;;;;;;;5029495;28;20093;-78
2021/08/05 12:09:59;;;;;;;4.90;1.30;;;;;;;;;;5022343;28;20230;-78
2021/08/05 12:12:25;;;;;;;6.25;1.02;;;;;;;;;;5030200;28;20049;-78
2021/08/05 12:14:52;;;;;;;4.47;1.20;;;;;;;;;;5024373;28;20033;-78
2021/08/05 12:17:30;;;;;;;5.30;1.00;;;;;;;;;;5029380;28;20067;-78
2021/08/05 12:19:57;;;;;;;6.90;1.08;;;;;;;;;;5031205;28;20022;-77
2021/08/05 12:22:35;;;;;;;5.70;1.05;;;;;;;;;;5031008;28;20583;-78
2021/08/05 12:25:05;;;;;;;5.43;1.10;;;;;;;;;;5033424;28;20049;-77
2021/08/05 12:27:31;;;;;;;5.10;1.30;;;;;;;;;;5034242;28;20038;-77
2021/08/05 12:29:58;;;;;;;4.35;1.23;;;;;;;;;;5032748;28;20025;-78
2021/08/05 12:32:25;;;;;;;4.68;1.00;;;;;;;;;;5032183;28;20087;-77
2021/08/05 12:34:51;;;;;;;2.35;1.10;;;;;;;;;;5036379;28;20025;-77
2021/08/05 12:37:17;;;;;;;4.20;1.10;;;;;;;;;;5034060;28;20040;-77
2021/08/05 12:39:43;;;;;;;3.03;1.00;;;;;;;;;;5022938;28;20512;-77
2021/08/05 12:42:09;;;;;;;2.55;1.33;;;;;;;;;;5027039;28;20036;-76
2021/08/05 12:44:36;;;;;;;2.25;0.80;;;;;;;;;;5033981;28;20459;-77
2021/08/05 12:47:04;;;;;;;7.80;1.13;;;;;;;;;;5033371;28;20069;-77
2021/08/05 12:49:36;;;;;;;6.82;1.25;;;;;;;;;;5031045;28;20057;-76
2021/08/05 12:52:03;;;;;;;2.20;0.90;;;;;;;;;;5028534;28;20400;-76
2021/08/05 12:54:29;;;;;;;2.90;1.25;;;;;;;;;;5032745;28;20081;-76
2021/08/05 12:56:59;;;;;;;3.47;1.20;;;;;;;;;;5033716;28;20033;-76
2021/08/05 12:59:40;;;;;;;4.20;1.02;;;;;;;;;;5032454;28;20388;-76
2021/08/05 13:02:10;;;;;;;2.45;0.88;;;;;;;;;;5024902;28;20057;-77
2021/08/05 13:04:36;;;;;;;5.68;1.13;;;;;;;;;;5033088;28;20036;-77
2021/08/05 13:07:03;;;;;;;4.00;1.13;;;;;;;;;;5030677;28;20440;-76
2021/08/05 13:09:34;;;;;;;3.75;1.13;;;;;;;;;;5032913;28;20025;-76
2021/08/05 13:12:19;;;;;;;4.20;1.30;;;;;;;;;;5032370;28;20025;-76
2021/08/05 13:14:45;;;;;;;1.95;1.10;;;;;;;;;;5033066;28;20024;-77
2021/08/05 13:17:12;;;;;;;3.08;1.08;;;;;;;;;;5031696;28;20397;-77
2021/08/05 13:19:57;;;;;;;3.75;1.35;;;;;;;;;;5031897;28;20474;-77
2021/08/05 13:22:35;;;;;;;2.25;0.90;;;;;;;;;;5030052;28;20061;-77
2021/08/05 13:25:02;;;;;;;2.13;1.02;;;;;;;;;;5031605;28;20038;-77
2021/08/05 13:27:32;;;;;;;2.40;1.10;;;;;;;;;;5025371;28;20037;-77
2021/08/05 13:29:58;;;;;;;3.42;1.10;;;;;;;;;;5024561;28;20029;-76
2021/08/05 13:32:24;;;;;;;1.33;1.00;;;;;;;;;;5030001;28;20025;-77
2021/08/05 13:35:01;;;;;;;2.70;1.20;;;;;;;;;;5031605;28;20385;-77
2021/08/05 13:37:28;;;;;;;2.17;1.15;;;;;;;;;;5029404;28;20053;-76
2021/08/05 13:39:59;;;;;;;4.28;0.95;;;;;;;;;;5032388;28;20025;-77
2021/08/05 13:42:26;;;;;;;1.30;0.70;;;;;;;;;;5027567;28;20037;-76
2021/08/05 13:44:52;;;;;;;1.90;1.00;;;;;;;;;;5026854;28;20021;-76
2021/08/05 13:47:18;;;;;;;2.00;0.90;;;;;;;;;;5031564;28;20031;-78
2021/08/05 13:49:45;;;;;;;1.33;0.70;;;;;;;;;;5032080;28;20082;-77
2021/08/05 13:52:12;;;;;;;3.85;1.20;;;;;;;;;;5031762;28;20112;-77
2021/08/05 13:54:38;;;;;;;1.45;1.10;;;;;;;;;;5032170;28;20416;-77
2021/08/05 13:57:05;;;;;;;2.38;1.00;;;;;;;;;;5031175;28;20021;-77
2021/08/05 13:59:31;;;;;;;4.38;1.05;;;;;;;;;;5030612;28;20100;-77
2021/08/05 14:01:57;;;;;;;1.70;0.90;;;;;;;;;;5032147;28;20029;-77
2021/08/05 14:04:23;;;;;;;4.82;1.30;;;;;;;;;;5031819;28;20029;-78
2021/08/05 14:06:49;;;;;;;1.38;1.02;;;;;;;;;;5032442;28;20029;-77
2021/08/05 14:09:16;;;;;;;2.38;1.13;;;;;;;;;;5031698;28;20030;-77
2021/08/05 14:11:42;;;;;;;4.05;0.82;;;;;;;;;;5030674;28;20508;-76
2021/08/05 14:14:10;;;;;;;2.65;1.20;;;;;;;;;;5032079;28;20017;-77
2021/08/05 14:16:38;;;;;;;2.97;1.10;;;;;;;;;;5031462;28;20029;-77
2021/08/05 14:19:04;;;;;;;3.28;1.10;;;;;;;;;;5032509;28;20048;-77
2021/08/05 14:21:30;;;;;;;1.27;1.08;;;;;;;;;;5031558;28;20478;-78
2021/08/05 14:23:57;;;;;;;1.88;1.10;;;;;;;;;;5030653;28;20029;-78
2021/08/05 14:26:23;;;;;;;2.97;1.40;;;;;;;;;;5030088;28;20033;-77
2021/08/05 14:28:49;;;;;;;1.92;1.20;;;;;;;;;;5031972;28;20021;-77
2021/08/05 14:31:16;;;;;;;3.30;1.23;;;;;;;;;;5031249;28;20049;-77
2021/08/05 14:33:42;;;;;;;2.70;1.20;;;;;;;;;;5031595;28;20485;-76
2021/08/05 14:36:08;;;;;;;2.90;1.10;;;;;;;;;;5030991;28;20026;-76
2021/08/05 14:38:34;;;;;;;2.15;1.30;;;;;;;;;;5031253;28;20021;-77
2021/08/05 14:41:00;;;;;;;1.85;1.02;;;;;;;;;;5031990;28;20112;-77
2021/08/05 14:43:26;;;;;;;3.72;1.20;;;;;;;;;;5030789;28;20029;-77
2021/08/05 14:45:52;;;;;;;2.58;1.13;;;;;;;;;;5031417;28;20081;-77
2021/08/05 14:48:18;;;;;;;3.13;1.20;;;;;;;;;;5031078;28;20488;-77
2021/08/05 14:50:44;;;;;;;2.97;1.05;;;;;;;;;;5031845;28;20025;-77